Weather observations for the past three days for
MANDAN
Imperial (Metric)
Date Time (cdt) Wind (mph) Vis. (mi.) Weather Sky Cond. Temperature (ºF) Relative Humidity Wind Chill (°F) Heat Index (°F) Pressure Precipitation (in)
Air Dwpt 6 hour altimeter (in) sea level (mb) 1 hr 3 hr 6 hr
Max. Min.
09 14:15 N 15 10.00 Fair CLR 55.4 32 41% 29.99 0.0
09 13:55 NW 9 10.00 Fair CLR 55.4 32 41% 29.99 0.0
09 13:35 Vrbl 7 G 17 10.00 Fair CLR 53.6 32 44% 30 0.0
09 13:15 NW 12 10.00 Fair CLR 53.6 32 44% 30 0.0
09 12:55 N 8 G 17 10.00 Fair CLR 51.8 33.8 50% 30 0.0
09 12:35 N 13 10.00 Fair CLR 51.8 33.8 50% 30 0.0
09 12:15 N 10 G 18 10.00 Fair CLR 51.8 33.8 50% 30 0.0
09 11:55 NW 7 G 15 10.00 Fair CLR 50 33.8 54% 48 29.99 0.0
09 11:35 NW 10 10.00 Fair CLR 50 33.8 54% 46 29.99 0.0
09 11:15 N 9 10.00 Fair CLR 48.2 35.6 62% 45 29.99 0.0
09 10:55 NE 7 10.00 Fair CLR 48.2 33.8 58% 46 29.98 0.0
09 10:35 NE 8 10.00 Fair CLR 46.4 35.6 66% 43 29.98 0.0
09 10:15 N 6 G 13 10.00 Fair CLR 46.4 37.4 71% 44 29.97 0.0
09 09:55 NE 8 10.00 Fair CLR 46.4 35.6 66% 43 29.97 0.0
09 09:35 N 8 10.00 Fair CLR 44.6 37.4 76% 41 29.96 0.0
09 09:15 N 9 10.00 A Few Clouds FEW017 42.8 41 93% 38 29.96 0.0
09 08:55 N 7 10.00 Mostly Cloudy BKN016 42.8 42.8 100% 39 29.95 0.0
09 08:35 N 9 10.00 A Few Clouds FEW015 41 41 100% 36 29.95 0.0
09 08:15 NW 8 10.00 Fair CLR 41 41 100% 36 29.93 0.0
09 07:55 N 10 10.00 Fair CLR 39.2 39.2 100% 33 29.92 0.0
09 07:35 N 8 10.00 Fair CLR 37.4 37.4 100% 32 29.91 0.0
09 07:15 NW 10 10.00 Fair CLR 37.4 37.4 100% 31 29.89 0.0
09 06:55 NW 9 10.00 Fair CLR 35.6 35.6 100% 29 29.88 0.0
09 06:35 NW 9 10.00 Fair CLR 35.6 35.6 100% 29 29.87 0.0
09 06:15 NW 8 10.00 Fair CLR 35.6 35.6 100% 30 29.86 0.0
09 05:55 W 8 10.00 Fair CLR 35.6 35.6 100% 30 29.86 0.0
09 05:35 NW 9 10.00 Fair CLR 35.6 35.6 100% 29 29.84 0.0
09 05:15 NW 7 10.00 Fair CLR 37.4 37.4 100% 33 29.84 0.0
09 04:55 NW 8 10.00 Fair CLR 37.4 37.4 100% 32 29.84 0.0
09 04:35 NW 8 10.00 Fair CLR 39.2 39.2 100% 34 29.83 0.0
09 04:15 NW 7 10.00 Fair CLR 39.2 39.2 100% 35 29.82 0.0
09 03:55 N 10 10.00 Fair CLR 41 41 100% 35 29.81 0.0
09 03:35 N 10 10.00 Fair CLR 42.8 42.8 100% 38 29.81 0.0
09 03:15 N 14 10.00 Fair CLR 42.8 42.8 100% 36 29.8 0.0
09 02:55 N 14 10.00 Partly Cloudy SCT110 44.6 44.6 100% 39 29.79 0.0
09 02:35 N 14 10.00 Mostly Cloudy BKN110 46.4 46.4 100% 41 29.78 0.0
09 02:15 NW 13 10.00 Overcast OVC110 46.4 46.4 100% 41 29.78 0.0
09 01:55 NW 10 10.00 Overcast OVC100 46.4 46.4 100% 42 29.77 0.0
09 01:35 NW 10 10.00 Overcast SCT050 BKN060 OVC100 46.4 46.4 100% 42 29.76 0.0
09 01:15 W 8 10.00 Light Rain FEW035 SCT048 BKN060 46.4 46.4 100% 43 29.75 0.0
09 00:55 NW 7 9.00 Light Rain FEW035 SCT042 BKN050 46.4 46.4 100% 43 29.76 0.0
09 00:35 N 8 10.00 Light Rain SCT032 BKN040 OVC070 46.4 46.4 100% 43 29.78 0.0
09 00:15 N 10 9.00 Light Rain BKN032 OVC040 46.4 46.4 100% 42 29.79 0.0
08 23:55 N 14 10.00 Light Rain SCT033 BKN038 OVC075 48.2 44.6 87% 43 29.78 0.0
08 23:35 N 12 10.00 Overcast SCT070 OVC075 50 42.8 76% 46 29.77 0.0
08 23:15 NE 13 G 20 10.00 Overcast FEW055 BKN065 OVC075 50 41 71% 46 29.75 0.0
08 22:55 NE 14 G 25 10.00 Overcast FEW055 OVC070 51.8 41 67% 29.75 0.0
08 22:35 N 24 10.00 Mostly Cloudy and Breezy FEW060 SCT065 BKN075 57.2 42.8 59% 29.74 0.0
08 22:15 N 16 10.00 Mostly Cloudy FEW075 SCT090 BKN110 57.2 41 55% 29.72 0.0
08 21:55 N 20 G 25 10.00 Mostly Cloudy FEW080 SCT100 BKN120 57.2 41 55% 29.71 0.0
08 21:35 N 26 G 36 10.00 Overcast and Windy SCT080 OVC095 62.6 41 45% 29.69 0.0
08 21:15 NW 17 10.00 Overcast FEW055 SCT080 OVC095 64.4 35.6 34% 29.65 0.0
08 20:55 W 18 G 26 10.00 Mostly Cloudy FEW065 SCT080 BKN095 64.4 35.6 34% 29.65 0.0
08 20:35 W 15 10.00 Mostly Cloudy BKN100 BKN120 64.4 35.6 34% 29.65 0.0
08 20:15 W 12 10.00 Overcast BKN100 OVC120 64.4 37.4 37% 29.65 0.0
08 19:55 W 12 10.00 Mostly Cloudy BKN110 66.2 35.6 32% 29.66 0.0
08 19:35 W 17 G 26 10.00 A Few Clouds FEW085 FEW120 68 35.6 30% 29.66 0.0
08 19:15 W 24 G 32 10.00 Mostly Cloudy and Breezy BKN095 BKN110 68 35.6 30% 29.67 0.0
08 18:55 W 15 10.00 Mostly Cloudy BKN100 68 35.6 30% 29.68 0.0
08 18:35 W 12 G 20 10.00 Mostly Cloudy BKN110 68 37.4 33% 29.68 0.0
08 18:15 W 24 10.00 Mostly Cloudy and Breezy BKN100 68 35.6 30% 29.69 0.0
08 17:55 W 21 G 26 10.00 A Few Clouds and Breezy FEW100 69.8 35.6 29% 29.7 0.0
08 17:35 W 21 10.00 Fair and Breezy CLR 69.8 37.4 31% 29.71 0.0
08 17:15 NW 13 G 28 10.00 A Few Clouds FEW090 68 35.6 30% 29.72 0.0
08 16:55 W 17 G 23 10.00 Mostly Cloudy BKN095 BKN110 68 37.4 33% 29.73 0.0
08 16:35 NW 20 G 31 10.00 Partly Cloudy SCT100 68 35.6 30% 29.74 0.0
08 16:15 NW 22 G 31 10.00 Partly Cloudy and Breezy SCT090 69.8 35.6 29% 29.75 0.0
08 15:55 W 23 10.00 Mostly Cloudy and Breezy BKN090 68 37.4 33% 29.75 0.0
08 15:35 NW 10 G 23 10.00 Mostly Cloudy BKN095 66.2 37.4 35% 29.76 0.0
08 15:15 NW 20 G 26 10.00 Mostly Cloudy BKN090 66.2 35.6 32% 29.77 0.0
08 14:55 NW 17 10.00 Partly Cloudy SCT085 68 37.4 33% 29.77 0.0
08 14:35 NW 18 G 26 10.00 A Few Clouds FEW090 68 37.4 33% 29.78 0.0
08 14:15 NW 18 G 28 10.00 A Few Clouds FEW080 68 37.4 33% 29.78 0.0
08 13:55 NW 16 G 28 10.00 A Few Clouds FEW080 66.2 37.4 35% 29.78 0.0
08 13:35 N 18 G 29 10.00 A Few Clouds FEW080 66.2 37.4 35% 29.78 0.0
08 13:15 NW 23 G 30 10.00 Fair and Breezy CLR 66.2 37.4 35% 29.78 0.0
08 12:55 N 22 G 30 10.00 Fair and Breezy CLR 64.4 35.6 34% 29.79 0.0
08 12:35 N 20 G 30 10.00 Fair CLR 64.4 35.6 34% 29.79 0.0
08 12:15 N 23 G 30 10.00 Fair and Breezy CLR 64.4 33.8 32% 29.8 0.0
08 11:55 NW 20 G 29 10.00 Fair CLR 64.4 35.6 34% 29.8 0.0
08 11:35 NW 22 G 29 10.00 Fair and Breezy CLR 62.6 35.6 37% 29.8 0.0
08 11:15 NW 21 10.00 Fair and Breezy CLR 62.6 35.6 37% 29.79 0.0
08 10:55 NW 20 G 29 10.00 Fair CLR 60.8 33.8 36% 29.79 0.0
08 10:35 N 21 G 28 10.00 Fair and Breezy CLR 60.8 33.8 36% 29.79 0.0
08 10:15 NW 21 G 28 10.00 Fair and Breezy CLR 59 33.8 39% 29.79 0.0
08 09:55 N 20 10.00 Fair CLR 59 33.8 39% 29.79 0.0
08 09:35 NW 14 10.00 Fair CLR 57.2 33.8 41% 29.78 0.0
08 09:15 NW 12 G 17 10.00 Fair CLR 53.6 30.2 41% 29.78 0.0
08 08:55 NW 13 10.00 Fair CLR 51.8 30.2 44% 29.77 0.0
08 08:35 W 10 10.00 Fair CLR 50 30.2 47% 46 29.76 0.0
08 08:15 W 8 10.00 Fair CLR 48.2 30.2 50% 45 29.76 0.0
08 07:55 NW 7 9.00 Fair CLR 46.4 30.2 53% 43 29.76 0.0
08 07:35 W 5 10.00 Fair CLR 41 28.4 61% 38 29.74 0.0
08 07:15 NW 5 10.00 A Few Clouds FEW075 37.4 26.6 65% 34 29.74 0.0
08 06:55 W 5 10.00 Mostly Cloudy FEW080 BKN100 BKN120 39.2 24.8 56% 36 29.74 0.0
08 06:35 NW 5 10.00 Mostly Cloudy FEW070 SCT085 BKN110 41 26.6 57% 38 29.75 0.0
08 06:15 NW 8 10.00 Overcast BKN075 OVC085 39.2 26.6 61% 34 29.75 0.0
08 05:55 W 6 10.00 Overcast BKN075 BKN090 OVC110 39.2 28.4 65% 36 29.75 0.0
08 05:35 W 6 10.00 Mostly Cloudy FEW080 BKN090 BKN110 41 26.6 57% 38 29.75 0.0
08 05:15 W 6 10.00 Mostly Cloudy BKN090 BKN120 41 26.6 57% 38 29.75 0.0
08 04:55 W 6 10.00 Mostly Cloudy SCT070 BKN090 BKN120 41 26.6 57% 38 29.75 0.0
08 04:35 W 6 10.00 Overcast OVC070 41 28.4 61% 38 29.76 0.0
08 04:15 W 5 10.00 Overcast SCT075 OVC100 42.8 24.8 49% 41 29.76 0.0
08 03:55 W 6 10.00 Overcast OVC100 42.8 24.8 49% 40 29.76 0.0
08 03:35 W 5 10.00 Overcast OVC110 44.6 24.8 46% 43 29.76 0.0
08 03:15 W 3 10.00 Partly Cloudy SCT110 41 26.6 57% 29.76 0.0
08 02:55 W 6 10.00 Partly Cloudy SCT100 39.2 26.6 61% 36 29.77 0.0
08 02:35 SW 7 10.00 Mostly Cloudy BKN100 42.8 28.4 57% 39 29.77 0.0
08 02:15 SW 3 10.00 Fair CLR 42.8 26.6 53% 29.77 0.0
08 01:55 Calm 10.00 Mostly Cloudy SCT095 BKN110 44.6 26.6 49% 29.78 0.0
08 01:35 SW 3 10.00 Overcast SCT075 BKN085 OVC110 44.6 28.4 53% 29.78 0.0
08 01:15 S 5 10.00 Overcast FEW075 OVC100 50 24.8 37% 49 29.78 0.0
08 00:55 S 3 10.00 Overcast FEW075 OVC100 51.8 23 32% 29.78 0.0
08 00:35 SE 6 10.00 Overcast OVC100 48.2 23 37% 46 29.79 0.0
08 00:15 E 6 10.00 Mostly Cloudy BKN090 BKN110 51.8 23 32% 29.79 0.0
07 23:55 Calm 10.00 Mostly Cloudy FEW075 BKN100 48.2 24.8 40% 29.79 0.0
07 23:35 Calm 10.00 Overcast BKN070 OVC100 50 24.8 37% 29.8 0.0
07 23:15 Calm 10.00 Overcast BKN065 OVC080 48.2 28.4 46% 29.8 0.0
07 22:55 N 6 10.00 Overcast FEW065 BKN075 OVC100 51.8 26.6 38% 29.8 0.0
07 22:35 NW 5 10.00 Overcast BKN075 OVC100 53.6 24.8 33% 29.8 0.0
07 22:15 NW 6 10.00 Overcast SCT080 OVC110 53.6 24.8 33% 29.8 0.0
07 21:55 N 5 10.00 Overcast FEW080 OVC110 53.6 24.8 33% 29.8 0.0
07 21:35 N 6 10.00 Overcast SCT080 OVC110 53.6 26.6 35% 29.79 0.0
07 21:15 N 5 10.00 Mostly Cloudy BKN110 53.6 24.8 33% 29.79 0.0
07 20:55 N 6 10.00 Fair CLR 53.6 26.6 35% 29.78 0.0
07 20:35 N 6 10.00 A Few Clouds FEW120 53.6 26.6 35% 29.78 0.0
07 20:15 N 7 10.00 Fair CLR 55.4 26.6 33% 29.77 0.0
07 19:55 N 7 10.00 Fair CLR 55.4 30.2 38% 29.77 0.0
07 19:35 N 7 10.00 Fair CLR 57.2 28.4 33% 29.77 0.0
07 19:15 N 13 10.00 Fair CLR 60.8 26.6 27% 29.77 0.0
07 18:55 NW 9 10.00 Fair CLR 60.8 24.8 25% 29.77 0.0
07 18:35 NW 9 10.00 Fair CLR 62.6 26.6 25% 29.77 0.0
07 18:15 NW 13 10.00 Fair CLR 62.6 26.6 25% 29.77 0.0
07 17:55 NW 13 G 18 10.00 Fair CLR 62.6 24.8 24% 29.77 0.0
07 17:35 W 8 10.00 Fair CLR 62.6 26.6 25% 29.78 0.0
07 17:15 NW 13 G 20 10.00 Fair CLR 62.6 26.6 25% 29.78 0.0
07 16:55 N 9 G 20 10.00 Fair CLR 62.6 26.6 25% 29.79 0.0
07 16:35 W 12 G 20 10.00 Fair CLR 60.8 26.6 27% 29.79 0.0
07 16:15 NW 13 G 20 10.00 Fair CLR 60.8 24.8 25% 29.8 0.0
07 15:35 NW 12 G 22 10.00 Fair CLR 60.8 24.8 25% 29.81 0.0
07 15:15 N 12 G 17 10.00 Fair CLR 60.8 23 23% 29.82 0.0
07 14:55 W 7 G 22 10.00 Fair CLR 60.8 23 23% 29.82 0.0
07 14:35 Vrbl 7 G 17 10.00 Fair CLR 59 23 25% 29.82 0.0
07 14:15 NW 8 G 18 10.00 Fair CLR 59 24.8 27% 29.82 0.0
07 13:55 NW 8 G 17 10.00 Fair CLR 59 24.8 27% 29.82 0.0
07 13:35 N 5 G 18 10.00 Fair CLR 57.2 23 27% 29.83 0.0
07 13:15 NW 7 G 17 10.00 Fair CLR 57.2 24.8 29% 29.84 0.0
07 12:55 W 9 G 18 10.00 Fair CLR 57.2 26.6 31% 29.85 0.0
07 12:35 NW 8 G 20 10.00 Fair CLR 55.4 24.8 31% 29.85 0.0
07 12:15 Calm 10.00 Fair CLR 53.6 24.8 33% 29.86 0.0
07 11:55 Vrbl 3 G 15 10.00 Fair CLR 53.6 23 30% 29.86 0.0
07 11:35 NW 8 10.00 Fair CLR 51.8 24.8 35% 29.87 0.0
07 11:15 Vrbl 6 10.00 Fair CLR 50 26.6 40% 48 29.87 0.0
07 10:55 W 8 10.00 Fair CLR 50 28.4 43% 47 29.88 0.0
07 10:35 NW 8 10.00 Fair CLR 48.2 26.6 43% 45 29.88 0.0
07 10:15 Calm 10.00 Fair CLR 46.4 28.4 50% 29.89 0.0
07 09:55 NW 3 10.00 Fair CLR 46.4 28.4 50% 29.89 0.0
07 09:35 Vrbl 6 10.00 Fair CLR 42.8 28.4 57% 40 29.89 0.0
07 09:15 Calm 10.00 Fair CLR 41 28.4 61% 29.88 0.0
07 08:55 Calm 9.00 Fair CLR 39.2 28.4 65% 29.88 0.0
07 08:35 Calm 10.00 Fair CLR 37.4 26.6 65% 29.88 0.0
07 08:15 Calm 10.00 Fair CLR 35.6 26.6 70% 29.88 0.0
07 07:55 Calm 3.00 Fair with Haze CLR 32 26.6 80% 29.87 0.0
07 07:35 Calm 7.00 Fair CLR 28.4 26.6 93% 29.87 0.0
07 07:15 Calm 10.00 Fair CLR 28.4 23 80% 29.86 0.0
07 06:55 Calm 10.00 Fair CLR 26.6 21.2 80% 29.86 0.0
07 06:35 Calm 10.00 Fair CLR 28.4 21.2 74% 29.86 0.0
07 06:15 Calm 10.00 Fair CLR 30.2 23 75% 29.86 0.0
07 05:55 Calm 10.00 Fair CLR 30.2 23 75% 29.86 0.0
07 05:35 Calm 10.00 Fair CLR 30.2 23 75% 29.86 0.0
07 05:15 Calm 10.00 Fair CLR 28.4 23 80% 29.86 0.0
07 04:55 S 3 10.00 Fair CLR 28.4 23 80% 29.86 0.0
07 04:35 S 6 10.00 Fair CLR 33.8 23 65% 29 29.86 0.0
07 04:15 S 5 9.00 Fair CLR 33.8 23 65% 30 29.86 0.0
07 03:55 S 5 10.00 Fair CLR 33.8 23 65% 30 29.86 0.0
07 03:35 S 6 10.00 Fair CLR 33.8 23 65% 29 29.86 0.0
07 03:15 S 6 10.00 Fair CLR 33.8 23 65% 29 29.86 0.0
07 02:55 S 6 10.00 Fair CLR 33.8 21.2 60% 29 29.86 0.0
07 02:35 S 7 10.00 Fair CLR 33.8 21.2 60% 28 29.86 0.0
07 02:15 S 7 10.00 Fair CLR 33.8 21.2 60% 28 29.86 0.0
07 01:55 S 7 10.00 Fair CLR 33.8 21.2 60% 28 29.87 0.0
07 01:35 SW 6 10.00 Fair CLR 33.8 21.2 60% 29 29.87 0.0
07 01:15 SW 3 10.00 Fair CLR 35.6 21.2 56% 29.87 0.0
07 00:55 S 6 10.00 Fair CLR 32 21.2 64% 27 29.87 0.0
07 00:35 S 5 10.00 Fair CLR 37.4 21.2 52% 34 29.87 0.0
07 00:15 SE 6 10.00 Fair CLR 37.4 21.2 52% 33 29.87 0.0
06 23:55 SE 7 10.00 Fair CLR 37.4 21.2 52% 33 29.88 0.0
06 23:35 E 8 10.00 Fair CLR 39.2 21.2 48% 34 29.88 0.0
06 23:15 SE 6 10.00 Fair CLR 41 21.2 45% 38 29.88 0.0
06 22:55 SE 6 10.00 Fair CLR 41 21.2 45% 38 29.89 0.0
06 22:35 SE 5 10.00 Fair CLR 41 23 49% 38 29.89 0.0
06 22:15 E 6 10.00 A Few Clouds FEW090 42.8 23 46% 40 29.89 0.0
06 21:55 NE 3 10.00 Mostly Cloudy BKN090 42.8 21.2 42% 29.89 0.0
06 21:35 NE 6 10.00 Fair CLR 42.8 23 46% 40 29.89 0.0
06 21:15 NE 7 10.00 Fair CLR 41 23 49% 37 29.89 0.0
06 20:55 N 6 10.00 Fair CLR 42.8 23 46% 40 29.89 0.0
06 20:35 N 6 10.00 Fair CLR 44.6 24.8 46% 42 29.89 0.0
06 20:15 N 9 10.00 Fair CLR 48.2 24.8 40% 45 29.89 0.0
06 19:55 N 9 10.00 Fair CLR 48.2 24.8 40% 45 29.9 0.0
06 19:35 NW 6 G 13 10.00 Fair CLR 50 24.8 37% 48 29.9 0.0
06 19:15 NW 10 10.00 A Few Clouds FEW075 50 24.8 37% 46 29.9 0.0
06 18:55 N 13 10.00 Partly Cloudy SCT080 SCT090 50 24.8 37% 46 29.91 0.0
06 18:35 N 8 10.00 Overcast SCT075 OVC085 50 24.8 37% 47 29.91 0.0
06 18:15 NW 13 G 20 10.00 Overcast SCT070 OVC080 50 24.8 37% 46 29.92 0.0
06 17:55 N 13 G 21 10.00 Overcast FEW060 OVC075 51.8 24.8 35% 29.92 0.0
06 17:35 NW 12 G 20 10.00 Overcast OVC070 50 24.8 37% 46 29.92 0.0
06 17:15 NW 15 10.00 Overcast BKN070 OVC080 50 24.8 37% 45 29.93 0.0
06 16:55 NW 12 G 21 10.00 Mostly Cloudy BKN065 BKN080 50 24.8 37% 46 29.93 0.0
06 16:35 NW 16 10.00 Overcast OVC070 50 24.8 37% 45 29.94 0.0
06 16:15 N 14 G 24 10.00 Mostly Cloudy BKN065 BKN075 50 24.8 37% 45 29.95 0.0
06 15:55 NW 16 G 23 10.00 Mostly Cloudy BKN070 51.8 24.8 35% 29.96 0.0
06 15:35 W 13 G 30 10.00 Overcast BKN065 OVC075 50 24.8 37% 46 29.96 0.0
06 15:15 NW 8 G 17 10.00 Overcast BKN060 OVC070 46.4 24.8 43% 43 29.97 0.0
06 14:55 NW 14 10.00 Overcast OVC065 48.2 26.6 43% 43 29.98 0.0
Date Time (cdt) Wind (mph) Vis. (mi.) Weather Sky Cond. Air Dwpt Max. Min. Relative Humidity Wind Chill (°F) Heat Index (°F) altimeter (in) sea level (mb) 1 hr 3 hr 6 hr
6 hour
Temperature (ºF) Pressure Precipitation (in)